sensor_id;sensor_type;location;lat;lon;timestamp;P1;durP1;ratioP1;P2;durP2;ratioP2
44276;SDS011;29973;43.742;1.236;2023-06-04T00:00:46;32.08;;;15.80;;
44276;SDS011;29973;43.742;1.236;2023-06-04T00:03:12;43.30;;;14.75;;
44276;SDS011;29973;43.742;1.236;2023-06-04T00:05:38;39.10;;;18.13;;
44276;SDS011;29973;43.742;1.236;2023-06-04T00:08:03;39.20;;;16.73;;
44276;SDS011;29973;43.742;1.236;2023-06-04T00:10:29;55.38;;;17.98;;
44276;SDS011;29973;43.742;1.236;2023-06-04T00:12:56;28.75;;;14.88;;
44276;SDS011;29973;43.742;1.236;2023-06-04T00:15:22;33.88;;;16.15;;
44276;SDS011;29973;43.742;1.236;2023-06-04T00:17:48;27.05;;;15.90;;
44276;SDS011;29973;43.742;1.236;2023-06-04T00:20:14;35.25;;;17.45;;
44276;SDS011;29973;43.742;1.236;2023-06-04T00:22:39;47.92;;;17.25;;
44276;SDS011;29973;43.742;1.236;2023-06-04T00:25:07;39.20;;;16.95;;
44276;SDS011;29973;43.742;1.236;2023-06-04T00:27:34;36.20;;;16.55;;
44276;SDS011;29973;43.742;1.236;2023-06-04T00:30:01;30.58;;;17.25;;
44276;SDS011;29973;43.742;1.236;2023-06-04T00:32:27;40.58;;;17.73;;
44276;SDS011;29973;43.742;1.236;2023-06-04T00:34:53;33.90;;;16.77;;
44276;SDS011;29973;43.742;1.236;2023-06-04T00:37:29;38.03;;;16.90;;
44276;SDS011;29973;43.742;1.236;2023-06-04T00:39:55;36.97;;;16.58;;
44276;SDS011;29973;43.742;1.236;2023-06-04T00:42:21;29.83;;;14.50;;
44276;SDS011;29973;43.742;1.236;2023-06-04T00:44:46;26.60;;;14.95;;
44276;SDS011;29973;43.742;1.236;2023-06-04T00:47:15;30.95;;;15.25;;
44276;SDS011;29973;43.742;1.236;2023-06-04T00:52:10;36.40;;;14.13;;
44276;SDS011;29973;43.742;1.236;2023-06-04T00:54:37;37.97;;;15.02;;
44276;SDS011;29973;43.742;1.236;2023-06-04T00:57:06;30.52;;;14.35;;
44276;SDS011;29973;43.742;1.236;2023-06-04T00:59:34;28.67;;;14.60;;
44276;SDS011;29973;43.742;1.236;2023-06-04T01:05:07;28.92;;;12.98;;
44276;SDS011;29973;43.742;1.236;2023-06-04T01:07:41;29.73;;;13.73;;
44276;SDS011;29973;43.742;1.236;2023-06-04T01:10:11;29.33;;;14.07;;
44276;SDS011;29973;43.742;1.236;2023-06-04T01:12:43;30.23;;;13.90;;
44276;SDS011;29973;43.742;1.236;2023-06-04T01:15:10;40.00;;;12.52;;
44276;SDS011;29973;43.742;1.236;2023-06-04T01:28:07;29.10;;;12.60;;
44276;SDS011;29973;43.742;1.236;2023-06-04T01:30:36;29.42;;;13.27;;
44276;SDS011;29973;43.742;1.236;2023-06-04T01:33:08;31.80;;;14.77;;
44276;SDS011;29973;43.742;1.236;2023-06-04T01:35:35;31.58;;;14.60;;
44276;SDS011;29973;43.742;1.236;2023-06-04T01:38:01;34.75;;;16.58;;
44276;SDS011;29973;43.742;1.236;2023-06-04T01:40:27;35.75;;;16.85;;
44276;SDS011;29973;43.742;1.236;2023-06-04T01:42:53;39.15;;;17.23;;
44276;SDS011;29973;43.742;1.236;2023-06-04T01:45:20;35.45;;;16.08;;
44276;SDS011;29973;43.742;1.236;2023-06-04T01:47:47;45.17;;;16.23;;
44276;SDS011;29973;43.742;1.236;2023-06-04T01:50:12;50.38;;;18.25;;
44276;SDS011;29973;43.742;1.236;2023-06-04T01:52:39;37.20;;;17.45;;
44276;SDS011;29973;43.742;1.236;2023-06-04T01:55:05;37.33;;;17.45;;
44276;SDS011;29973;43.742;1.236;2023-06-04T01:57:33;39.05;;;16.90;;
44276;SDS011;29973;43.742;1.236;2023-06-04T02:00:00;63.60;;;18.40;;
44276;SDS011;29973;43.742;1.236;2023-06-04T02:02:26;89.03;;;17.98;;
44276;SDS011;29973;43.742;1.236;2023-06-04T02:04:52;49.80;;;18.08;;
44276;SDS011;29973;43.742;1.236;2023-06-04T02:07:18;38.33;;;15.95;;
44276;SDS011;29973;43.742;1.236;2023-06-04T02:09:47;46.88;;;18.98;;
44276;SDS011;29973;43.742;1.236;2023-06-04T02:12:13;44.60;;;17.20;;
44276;SDS011;29973;43.742;1.236;2023-06-04T02:14:39;38.00;;;17.20;;
44276;SDS011;29973;43.742;1.236;2023-06-04T02:17:10;47.13;;;18.17;;
44276;SDS011;29973;43.742;1.236;2023-06-04T02:19:41;45.72;;;18.80;;
44276;SDS011;29973;43.742;1.236;2023-06-04T02:22:17;44.97;;;18.83;;
44276;SDS011;29973;43.742;1.236;2023-06-04T02:24:44;38.45;;;18.02;;
44276;SDS011;29973;43.742;1.236;2023-06-04T02:27:11;47.25;;;19.20;;
44276;SDS011;29973;43.742;1.236;2023-06-04T02:29:40;40.85;;;17.70;;
44276;SDS011;29973;43.742;1.236;2023-06-04T02:32:07;43.88;;;17.42;;
44276;SDS011;29973;43.742;1.236;2023-06-04T02:34:33;69.35;;;18.33;;
44276;SDS011;29973;43.742;1.236;2023-06-04T02:36:59;43.30;;;16.77;;
44276;SDS011;29973;43.742;1.236;2023-06-04T02:39:26;36.83;;;16.73;;
44276;SDS011;29973;43.742;1.236;2023-06-04T02:41:51;45.13;;;18.45;;
44276;SDS011;29973;43.742;1.236;2023-06-04T02:44:17;56.72;;;19.77;;
44276;SDS011;29973;43.742;1.236;2023-06-04T02:46:43;49.45;;;18.75;;
44276;SDS011;29973;43.742;1.236;2023-06-04T02:49:09;57.05;;;20.65;;
44276;SDS011;29973;43.742;1.236;2023-06-04T02:51:39;45.22;;;18.02;;
44276;SDS011;29973;43.742;1.236;2023-06-04T02:54:05;43.67;;;18.17;;
44276;SDS011;29973;43.742;1.236;2023-06-04T02:56:31;39.38;;;18.27;;
44276;SDS011;29973;43.742;1.236;2023-06-04T02:58:57;39.45;;;18.35;;
44276;SDS011;29973;43.742;1.236;2023-06-04T03:01:23;47.67;;;18.33;;
44276;SDS011;29973;43.742;1.236;2023-06-04T03:03:50;49.72;;;20.55;;
44276;SDS011;29973;43.742;1.236;2023-06-04T03:06:16;38.58;;;17.45;;
44276;SDS011;29973;43.742;1.236;2023-06-04T03:08:45;49.05;;;19.42;;
44276;SDS011;29973;43.742;1.236;2023-06-04T03:11:11;52.60;;;19.42;;
44276;SDS011;29973;43.742;1.236;2023-06-04T03:13:37;49.22;;;19.13;;
44276;SDS011;29973;43.742;1.236;2023-06-04T03:16:03;47.33;;;19.58;;
44276;SDS011;29973;43.742;1.236;2023-06-04T03:21:04;45.10;;;18.05;;
44276;SDS011;29973;43.742;1.236;2023-06-04T03:23:30;48.90;;;20.15;;
44276;SDS011;29973;43.742;1.236;2023-06-04T03:25:57;44.65;;;19.85;;
44276;SDS011;29973;43.742;1.236;2023-06-04T03:28:22;60.70;;;23.30;;
44276;SDS011;29973;43.742;1.236;2023-06-04T03:30:48;59.72;;;23.75;;
44276;SDS011;29973;43.742;1.236;2023-06-04T03:33:14;72.22;;;26.58;;
44276;SDS011;29973;43.742;1.236;2023-06-04T03:35:40;68.32;;;25.42;;
44276;SDS011;29973;43.742;1.236;2023-06-04T03:38:06;73.38;;;26.55;;
44276;SDS011;29973;43.742;1.236;2023-06-04T03:40:32;63.15;;;26.63;;
44276;SDS011;29973;43.742;1.236;2023-06-04T03:42:57;64.90;;;26.40;;
44276;SDS011;29973;43.742;1.236;2023-06-04T03:45:23;68.40;;;27.65;;
44276;SDS011;29973;43.742;1.236;2023-06-04T03:47:49;70.50;;;28.25;;
44276;SDS011;29973;43.742;1.236;2023-06-04T03:50:15;71.20;;;27.20;;
44276;SDS011;29973;43.742;1.236;2023-06-04T03:52:40;64.70;;;26.35;;
44276;SDS011;29973;43.742;1.236;2023-06-04T03:55:06;55.63;;;25.73;;
44276;SDS011;29973;43.742;1.236;2023-06-04T03:57:32;68.03;;;25.92;;
44276;SDS011;29973;43.742;1.236;2023-06-04T03:59:57;57.55;;;24.20;;
44276;SDS011;29973;43.742;1.236;2023-06-04T04:02:23;57.45;;;23.55;;
44276;SDS011;29973;43.742;1.236;2023-06-04T04:04:49;59.38;;;23.17;;
44276;SDS011;29973;43.742;1.236;2023-06-04T04:07:15;51.53;;;24.27;;
44276;SDS011;29973;43.742;1.236;2023-06-04T04:09:41;55.65;;;24.20;;
44276;SDS011;29973;43.742;1.236;2023-06-04T04:12:06;54.75;;;23.30;;
44276;SDS011;29973;43.742;1.236;2023-06-04T04:14:32;61.28;;;23.75;;
44276;SDS011;29973;43.742;1.236;2023-06-04T04:16:58;60.60;;;23.65;;
44276;SDS011;29973;43.742;1.236;2023-06-04T04:19:24;61.40;;;23.95;;
44276;SDS011;29973;43.742;1.236;2023-06-04T04:21:50;61.13;;;24.35;;
44276;SDS011;29973;43.742;1.236;2023-06-04T04:24:26;55.85;;;23.85;;
44276;SDS011;29973;43.742;1.236;2023-06-04T04:26:52;60.30;;;25.05;;
44276;SDS011;29973;43.742;1.236;2023-06-04T04:29:22;67.88;;;25.38;;
44276;SDS011;29973;43.742;1.236;2023-06-04T04:31:49;57.40;;;25.27;;
44276;SDS011;29973;43.742;1.236;2023-06-04T04:34:16;53.45;;;23.65;;
44276;SDS011;29973;43.742;1.236;2023-06-04T04:36:45;51.85;;;24.85;;
44276;SDS011;29973;43.742;1.236;2023-06-04T04:39:17;54.20;;;24.80;;
44276;SDS011;29973;43.742;1.236;2023-06-04T04:41:44;52.97;;;23.63;;
44276;SDS011;29973;43.742;1.236;2023-06-04T04:44:10;50.03;;;23.38;;
44276;SDS011;29973;43.742;1.236;2023-06-04T04:46:35;58.80;;;24.50;;
44276;SDS011;29973;43.742;1.236;2023-06-04T04:49:01;55.90;;;24.65;;
44276;SDS011;29973;43.742;1.236;2023-06-04T04:51:27;54.55;;;23.05;;
44276;SDS011;29973;43.742;1.236;2023-06-04T04:53:53;56.90;;;23.00;;
44276;SDS011;29973;43.742;1.236;2023-06-04T04:56:19;52.78;;;23.75;;
44276;SDS011;29973;43.742;1.236;2023-06-04T04:58:47;48.92;;;23.88;;
44276;SDS011;29973;43.742;1.236;2023-06-04T05:01:13;45.17;;;23.25;;
44276;SDS011;29973;43.742;1.236;2023-06-04T05:03:39;49.17;;;22.15;;
44276;SDS011;29973;43.742;1.236;2023-06-04T05:06:05;43.38;;;21.83;;
44276;SDS011;29973;43.742;1.236;2023-06-04T05:08:30;44.83;;;21.35;;
44276;SDS011;29973;43.742;1.236;2023-06-04T05:10:56;43.00;;;21.35;;
44276;SDS011;29973;43.742;1.236;2023-06-04T05:13:22;43.17;;;20.90;;
44276;SDS011;29973;43.742;1.236;2023-06-04T05:15:48;32.95;;;17.70;;
44276;SDS011;29973;43.742;1.236;2023-06-04T05:18:18;38.47;;;17.88;;
44276;SDS011;29973;43.742;1.236;2023-06-04T05:20:47;34.20;;;19.70;;
44276;SDS011;29973;43.742;1.236;2023-06-04T05:23:12;33.58;;;19.23;;
44276;SDS011;29973;43.742;1.236;2023-06-04T05:25:38;30.13;;;18.27;;
44276;SDS011;29973;43.742;1.236;2023-06-04T05:28:05;33.13;;;17.92;;
44276;SDS011;29973;43.742;1.236;2023-06-04T05:30:32;37.45;;;17.08;;
44276;SDS011;29973;43.742;1.236;2023-06-04T05:33:00;31.17;;;18.52;;
44276;SDS011;29973;43.742;1.236;2023-06-04T05:35:26;33.78;;;17.75;;
44276;SDS011;29973;43.742;1.236;2023-06-04T05:37:51;29.17;;;17.20;;
44276;SDS011;29973;43.742;1.236;2023-06-04T05:40:20;34.75;;;17.63;;
44276;SDS011;29973;43.742;1.236;2023-06-04T05:42:47;29.33;;;16.33;;
44276;SDS011;29973;43.742;1.236;2023-06-04T05:45:13;28.17;;;16.23;;
44276;SDS011;29973;43.742;1.236;2023-06-04T05:47:39;28.17;;;15.15;;
44276;SDS011;29973;43.742;1.236;2023-06-04T05:50:05;26.83;;;15.32;;
44276;SDS011;29973;43.742;1.236;2023-06-04T05:52:31;26.83;;;15.40;;
44276;SDS011;29973;43.742;1.236;2023-06-04T05:54:59;33.10;;;14.63;;
44276;SDS011;29973;43.742;1.236;2023-06-04T05:57:25;25.52;;;14.10;;
44276;SDS011;29973;43.742;1.236;2023-06-04T05:59:51;24.50;;;13.10;;
44276;SDS011;29973;43.742;1.236;2023-06-04T06:02:16;22.77;;;14.13;;
44276;SDS011;29973;43.742;1.236;2023-06-04T06:04:42;24.17;;;13.25;;
44276;SDS011;29973;43.742;1.236;2023-06-04T06:07:08;26.83;;;14.27;;
44276;SDS011;29973;43.742;1.236;2023-06-04T06:09:34;24.38;;;13.77;;
44276;SDS011;29973;43.742;1.236;2023-06-04T06:12:01;24.20;;;13.30;;
44276;SDS011;29973;43.742;1.236;2023-06-04T06:14:27;20.15;;;13.48;;
44276;SDS011;29973;43.742;1.236;2023-06-04T06:16:52;20.67;;;13.10;;
44276;SDS011;29973;43.742;1.236;2023-06-04T06:19:18;23.38;;;13.60;;
44276;SDS011;29973;43.742;1.236;2023-06-04T06:21:44;19.35;;;13.55;;
44276;SDS011;29973;43.742;1.236;2023-06-04T06:24:10;22.55;;;14.25;;
44276;SDS011;29973;43.742;1.236;2023-06-04T06:26:36;23.50;;;13.88;;
44276;SDS011;29973;43.742;1.236;2023-06-04T06:29:02;22.48;;;14.60;;
44276;SDS011;29973;43.742;1.236;2023-06-04T06:31:27;20.02;;;14.88;;
44276;SDS011;29973;43.742;1.236;2023-06-04T06:33:53;20.42;;;13.52;;
44276;SDS011;29973;43.742;1.236;2023-06-04T06:36:19;23.98;;;14.93;;
44276;SDS011;29973;43.742;1.236;2023-06-04T06:38:45;18.55;;;12.95;;
44276;SDS011;29973;43.742;1.236;2023-06-04T06:41:11;18.85;;;12.90;;
44276;SDS011;29973;43.742;1.236;2023-06-04T06:43:37;20.08;;;13.23;;
44276;SDS011;29973;43.742;1.236;2023-06-04T06:46:02;23.83;;;13.85;;
44276;SDS011;29973;43.742;1.236;2023-06-04T06:48:28;19.80;;;12.75;;
44276;SDS011;29973;43.742;1.236;2023-06-04T06:50:54;22.27;;;13.13;;
44276;SDS011;29973;43.742;1.236;2023-06-04T06:53:20;22.15;;;12.38;;
44276;SDS011;29973;43.742;1.236;2023-06-04T06:55:46;13.40;;;11.20;;
44276;SDS011;29973;43.742;1.236;2023-06-04T06:58:12;16.48;;;11.00;;
44276;SDS011;29973;43.742;1.236;2023-06-04T07:00:37;18.35;;;12.18;;
44276;SDS011;29973;43.742;1.236;2023-06-04T07:03:03;17.55;;;10.93;;
44276;SDS011;29973;43.742;1.236;2023-06-04T07:05:29;13.63;;;10.13;;
44276;SDS011;29973;43.742;1.236;2023-06-04T07:07:55;13.45;;;10.98;;
44276;SDS011;29973;43.742;1.236;2023-06-04T07:10:22;14.02;;;10.77;;
44276;SDS011;29973;43.742;1.236;2023-06-04T07:12:49;16.77;;;10.88;;
44276;SDS011;29973;43.742;1.236;2023-06-04T07:15:15;16.52;;;10.63;;
44276;SDS011;29973;43.742;1.236;2023-06-04T07:17:41;15.68;;;11.13;;
44276;SDS011;29973;43.742;1.236;2023-06-04T07:20:07;14.40;;;10.90;;
44276;SDS011;29973;43.742;1.236;2023-06-04T07:22:34;14.32;;;11.27;;
44276;SDS011;29973;43.742;1.236;2023-06-04T07:25:00;14.13;;;10.82;;
44276;SDS011;29973;43.742;1.236;2023-06-04T07:27:26;23.73;;;11.75;;
44276;SDS011;29973;43.742;1.236;2023-06-04T07:29:53;17.10;;;10.70;;
44276;SDS011;29973;43.742;1.236;2023-06-04T07:32:18;14.68;;;9.52;;
44276;SDS011;29973;43.742;1.236;2023-06-04T07:34:44;15.18;;;10.40;;
44276;SDS011;29973;43.742;1.236;2023-06-04T07:37:10;14.07;;;10.88;;
44276;SDS011;29973;43.742;1.236;2023-06-04T07:39:38;17.48;;;10.35;;
44276;SDS011;29973;43.742;1.236;2023-06-04T07:42:04;16.05;;;10.65;;
44276;SDS011;29973;43.742;1.236;2023-06-04T07:44:32;16.05;;;10.27;;
44276;SDS011;29973;43.742;1.236;2023-06-04T07:46:58;19.35;;;15.23;;
44276;SDS011;29973;43.742;1.236;2023-06-04T07:49:23;15.38;;;10.45;;
44276;SDS011;29973;43.742;1.236;2023-06-04T07:51:49;14.07;;;10.90;;
44276;SDS011;29973;43.742;1.236;2023-06-04T07:54:15;13.23;;;9.00;;
44276;SDS011;29973;43.742;1.236;2023-06-04T07:56:41;17.08;;;9.82;;
44276;SDS011;29973;43.742;1.236;2023-06-04T07:59:07;13.40;;;9.10;;
44276;SDS011;29973;43.742;1.236;2023-06-04T08:01:33;12.85;;;8.95;;
44276;SDS011;29973;43.742;1.236;2023-06-04T08:03:59;12.55;;;9.00;;
44276;SDS011;29973;43.742;1.236;2023-06-04T08:06:24;16.10;;;8.52;;
44276;SDS011;29973;43.742;1.236;2023-06-04T08:08:51;14.75;;;8.70;;
44276;SDS011;29973;43.742;1.236;2023-06-04T08:11:17;11.27;;;7.75;;
44276;SDS011;29973;43.742;1.236;2023-06-04T08:13:43;11.63;;;7.95;;
44276;SDS011;29973;43.742;1.236;2023-06-04T08:16:09;13.25;;;9.05;;
44276;SDS011;29973;43.742;1.236;2023-06-04T08:18:39;11.02;;;7.72;;
44276;SDS011;29973;43.742;1.236;2023-06-04T08:21:05;11.63;;;8.48;;
44276;SDS011;29973;43.742;1.236;2023-06-04T08:23:35;11.80;;;7.87;;
44276;SDS011;29973;43.742;1.236;2023-06-04T08:26:03;11.50;;;8.05;;
44276;SDS011;29973;43.742;1.236;2023-06-04T08:29:08;9.88;;;7.97;;
44276;SDS011;29973;43.742;1.236;2023-06-04T08:31:34;10.43;;;6.57;;
44276;SDS011;29973;43.742;1.236;2023-06-04T08:33:59;18.95;;;8.63;;
44276;SDS011;29973;43.742;1.236;2023-06-04T08:36:26;11.88;;;7.78;;
44276;SDS011;29973;43.742;1.236;2023-06-04T08:38:52;11.05;;;8.68;;
44276;SDS011;29973;43.742;1.236;2023-06-04T08:41:28;11.02;;;6.47;;
44276;SDS011;29973;43.742;1.236;2023-06-04T08:43:58;9.95;;;6.53;;
44276;SDS011;29973;43.742;1.236;2023-06-04T08:46:26;13.43;;;7.35;;
44276;SDS011;29973;43.742;1.236;2023-06-04T08:48:54;8.68;;;7.18;;
44276;SDS011;29973;43.742;1.236;2023-06-04T08:51:25;9.60;;;6.57;;
44276;SDS011;29973;43.742;1.236;2023-06-04T08:53:51;10.77;;;6.97;;
44276;SDS011;29973;43.742;1.236;2023-06-04T08:56:19;15.32;;;6.97;;
44276;SDS011;29973;43.742;1.236;2023-06-04T08:58:47;9.32;;;6.75;;
44276;SDS011;29973;43.742;1.236;2023-06-04T09:01:14;9.55;;;6.47;;
44276;SDS011;29973;43.742;1.236;2023-06-04T09:03:40;8.70;;;6.68;;
44276;SDS011;29973;43.742;1.236;2023-06-04T09:06:06;10.38;;;6.47;;
44276;SDS011;29973;43.742;1.236;2023-06-04T09:08:34;11.55;;;6.57;;
44276;SDS011;29973;43.742;1.236;2023-06-04T09:11:04;8.45;;;6.50;;
44276;SDS011;29973;43.742;1.236;2023-06-04T09:13:31;10.75;;;5.68;;
44276;SDS011;29973;43.742;1.236;2023-06-04T09:16:02;6.03;;;5.25;;
44276;SDS011;29973;43.742;1.236;2023-06-04T09:18:30;6.75;;;5.82;;
44276;SDS011;29973;43.742;1.236;2023-06-04T09:21:01;7.93;;;5.20;;
44276;SDS011;29973;43.742;1.236;2023-06-04T09:23:31;6.75;;;5.57;;
44276;SDS011;29973;43.742;1.236;2023-06-04T09:26:15;11.68;;;5.85;;
44276;SDS011;29973;43.742;1.236;2023-06-04T09:28:41;10.20;;;5.25;;
44276;SDS011;29973;43.742;1.236;2023-06-04T09:31:08;10.57;;;4.80;;
44276;SDS011;29973;43.742;1.236;2023-06-04T09:33:46;5.55;;;4.40;;
44276;SDS011;29973;43.742;1.236;2023-06-04T09:36:16;8.88;;;4.93;;
44276;SDS011;29973;43.742;1.236;2023-06-04T09:38:42;7.22;;;5.13;;
44276;SDS011;29973;43.742;1.236;2023-06-04T09:41:16;6.75;;;4.70;;
44276;SDS011;29973;43.742;1.236;2023-06-04T09:43:44;6.60;;;4.78;;
44276;SDS011;29973;43.742;1.236;2023-06-04T09:46:11;5.75;;;3.97;;
44276;SDS011;29973;43.742;1.236;2023-06-04T09:48:41;5.65;;;4.55;;
44276;SDS011;29973;43.742;1.236;2023-06-04T09:51:08;6.55;;;4.45;;
44276;SDS011;29973;43.742;1.236;2023-06-04T09:53:40;6.93;;;4.18;;
44276;SDS011;29973;43.742;1.236;2023-06-04T09:56:06;8.63;;;4.88;;
44276;SDS011;29973;43.742;1.236;2023-06-04T09:58:35;8.13;;;4.45;;
44276;SDS011;29973;43.742;1.236;2023-06-04T10:01:03;8.02;;;4.22;;
44276;SDS011;29973;43.742;1.236;2023-06-04T10:03:33;7.55;;;4.50;;
44276;SDS011;29973;43.742;1.236;2023-06-04T10:06:01;3.97;;;3.53;;
44276;SDS011;29973;43.742;1.236;2023-06-04T10:08:29;7.35;;;4.18;;
44276;SDS011;29973;43.742;1.236;2023-06-04T10:10:58;7.07;;;4.40;;
44276;SDS011;29973;43.742;1.236;2023-06-04T10:13:26;4.80;;;3.90;;
44276;SDS011;29973;43.742;1.236;2023-06-04T10:15:56;8.80;;;4.25;;
44276;SDS011;29973;43.742;1.236;2023-06-04T10:18:24;7.90;;;4.05;;
44276;SDS011;29973;43.742;1.236;2023-06-04T10:20:52;5.93;;;3.58;;
44276;SDS011;29973;43.742;1.236;2023-06-04T10:23:20;5.53;;;3.85;;
44276;SDS011;29973;43.742;1.236;2023-06-04T10:25:50;5.55;;;3.88;;
44276;SDS011;29973;43.742;1.236;2023-06-04T10:28:20;5.82;;;3.97;;
44276;SDS011;29973;43.742;1.236;2023-06-04T10:30:47;4.05;;;2.85;;
44276;SDS011;29973;43.742;1.236;2023-06-04T10:33:20;4.60;;;3.25;;
44276;SDS011;29973;43.742;1.236;2023-06-04T10:35:49;7.30;;;3.33;;
44276;SDS011;29973;43.742;1.236;2023-06-04T10:38:15;4.38;;;3.53;;
44276;SDS011;29973;43.742;1.236;2023-06-04T10:40:45;7.60;;;3.90;;
44276;SDS011;29973;43.742;1.236;2023-06-04T10:43:12;7.07;;;3.65;;
44276;SDS011;29973;43.742;1.236;2023-06-04T10:45:40;4.50;;;2.90;;
44276;SDS011;29973;43.742;1.236;2023-06-04T10:48:06;5.28;;;2.90;;
44276;SDS011;29973;43.742;1.236;2023-06-04T10:50:33;6.55;;;3.30;;
44276;SDS011;29973;43.742;1.236;2023-06-04T10:53:00;8.88;;;3.40;;
44276;SDS011;29973;43.742;1.236;2023-06-04T10:55:30;4.63;;;3.17;;
44276;SDS011;29973;43.742;1.236;2023-06-04T10:58:00;5.13;;;3.40;;
44276;SDS011;29973;43.742;1.236;2023-06-04T11:00:37;4.63;;;2.95;;
44276;SDS011;29973;43.742;1.236;2023-06-04T11:03:04;5.57;;;2.60;;
44276;SDS011;29973;43.742;1.236;2023-06-04T11:05:39;8.18;;;3.85;;
44276;SDS011;29973;43.742;1.236;2023-06-04T11:08:06;6.10;;;4.03;;
44276;SDS011;29973;43.742;1.236;2023-06-04T11:10:33;10.65;;;5.22;;
44276;SDS011;29973;43.742;1.236;2023-06-04T11:13:00;3.95;;;2.90;;
44276;SDS011;29973;43.742;1.236;2023-06-04T11:15:26;7.00;;;3.13;;
44276;SDS011;29973;43.742;1.236;2023-06-04T11:18:01;9.95;;;4.50;;
44276;SDS011;29973;43.742;1.236;2023-06-04T11:20:30;3.35;;;3.05;;
44276;SDS011;29973;43.742;1.236;2023-06-04T11:22:57;5.85;;;3.47;;
44276;SDS011;29973;43.742;1.236;2023-06-04T11:25:25;4.65;;;3.20;;
44276;SDS011;29973;43.742;1.236;2023-06-04T11:27:54;5.82;;;2.95;;
44276;SDS011;29973;43.742;1.236;2023-06-04T11:30:20;5.50;;;3.70;;
44276;SDS011;29973;43.742;1.236;2023-06-04T11:32:47;7.00;;;5.05;;
44276;SDS011;29973;43.742;1.236;2023-06-04T11:35:12;18.02;;;13.63;;
44276;SDS011;29973;43.742;1.236;2023-06-04T11:37:38;13.10;;;7.50;;
44276;SDS011;29973;43.742;1.236;2023-06-04T11:40:17;15.27;;;9.27;;
44276;SDS011;29973;43.742;1.236;2023-06-04T11:42:44;9.82;;;5.03;;
44276;SDS011;29973;43.742;1.236;2023-06-04T11:45:14;10.82;;;6.38;;
44276;SDS011;29973;43.742;1.236;2023-06-04T11:47:44;4.70;;;3.45;;
44276;SDS011;29973;43.742;1.236;2023-06-04T11:50:11;8.35;;;5.75;;
44276;SDS011;29973;43.742;1.236;2023-06-04T11:52:38;6.20;;;3.47;;
44276;SDS011;29973;43.742;1.236;2023-06-04T11:55:04;4.40;;;3.25;;
44276;SDS011;29973;43.742;1.236;2023-06-04T11:57:33;6.13;;;3.50;;
44276;SDS011;29973;43.742;1.236;2023-06-04T11:59:59;4.10;;;2.58;;
44276;SDS011;29973;43.742;1.236;2023-06-04T12:02:25;3.40;;;2.40;;
44276;SDS011;29973;43.742;1.236;2023-06-04T12:04:51;8.32;;;2.90;;
44276;SDS011;29973;43.742;1.236;2023-06-04T12:07:20;5.40;;;2.45;;
44276;SDS011;29973;43.742;1.236;2023-06-04T12:09:49;4.25;;;3.05;;
44276;SDS011;29973;43.742;1.236;2023-06-04T12:12:15;3.45;;;2.92;;
44276;SDS011;29973;43.742;1.236;2023-06-04T12:14:55;3.85;;;2.83;;
44276;SDS011;29973;43.742;1.236;2023-06-04T12:17:22;3.97;;;2.70;;
44276;SDS011;29973;43.742;1.236;2023-06-04T12:19:48;3.22;;;2.47;;
44276;SDS011;29973;43.742;1.236;2023-06-04T12:22:15;3.28;;;2.58;;
44276;SDS011;29973;43.742;1.236;2023-06-04T12:24:48;4.57;;;2.40;;
44276;SDS011;29973;43.742;1.236;2023-06-04T12:27:19;3.55;;;2.20;;
44276;SDS011;29973;43.742;1.236;2023-06-04T12:30:04;4.83;;;2.63;;
44276;SDS011;29973;43.742;1.236;2023-06-04T12:32:34;3.92;;;2.25;;
44276;SDS011;29973;43.742;1.236;2023-06-04T12:35:00;3.63;;;2.20;;
44276;SDS011;29973;43.742;1.236;2023-06-04T12:37:26;4.22;;;2.30;;
44276;SDS011;29973;43.742;1.236;2023-06-04T12:39:53;2.30;;;1.98;;
44276;SDS011;29973;43.742;1.236;2023-06-04T12:42:19;2.78;;;2.10;;
44276;SDS011;29973;43.742;1.236;2023-06-04T12:44:45;5.13;;;2.38;;
44276;SDS011;29973;43.742;1.236;2023-06-04T12:47:11;3.40;;;1.98;;
44276;SDS011;29973;43.742;1.236;2023-06-04T12:49:37;3.60;;;2.00;;
44276;SDS011;29973;43.742;1.236;2023-06-04T12:52:03;2.95;;;2.28;;
44276;SDS011;29973;43.742;1.236;2023-06-04T12:54:29;4.25;;;1.90;;
44276;SDS011;29973;43.742;1.236;2023-06-04T12:56:55;4.38;;;2.10;;
44276;SDS011;29973;43.742;1.236;2023-06-04T12:59:22;3.50;;;1.95;;
44276;SDS011;29973;43.742;1.236;2023-06-04T13:01:49;4.05;;;2.10;;
44276;SDS011;29973;43.742;1.236;2023-06-04T13:04:15;2.60;;;2.05;;
44276;SDS011;29973;43.742;1.236;2023-06-04T13:06:41;3.63;;;2.10;;
44276;SDS011;29973;43.742;1.236;2023-06-04T13:09:06;4.05;;;2.22;;
44276;SDS011;29973;43.742;1.236;2023-06-04T13:11:43;3.58;;;1.85;;
44276;SDS011;29973;43.742;1.236;2023-06-04T13:14:09;5.00;;;2.50;;
44276;SDS011;29973;43.742;1.236;2023-06-04T13:16:36;4.95;;;2.38;;
44276;SDS011;29973;43.742;1.236;2023-06-04T13:19:03;5.07;;;2.45;;
44276;SDS011;29973;43.742;1.236;2023-06-04T13:21:29;2.65;;;2.30;;
44276;SDS011;29973;43.742;1.236;2023-06-04T13:23:55;4.88;;;2.47;;
44276;SDS011;29973;43.742;1.236;2023-06-04T13:26:21;6.20;;;2.72;;
44276;SDS011;29973;43.742;1.236;2023-06-04T13:28:47;4.03;;;2.22;;
44276;SDS011;29973;43.742;1.236;2023-06-04T13:31:13;2.65;;;1.70;;
44276;SDS011;29973;43.742;1.236;2023-06-04T13:33:39;4.00;;;2.22;;
44276;SDS011;29973;43.742;1.236;2023-06-04T13:36:06;4.60;;;2.30;;
44276;SDS011;29973;43.742;1.236;2023-06-04T13:38:32;3.53;;;1.90;;
44276;SDS011;29973;43.742;1.236;2023-06-04T13:40:58;3.13;;;2.08;;
44276;SDS011;29973;43.742;1.236;2023-06-04T13:43:24;2.25;;;1.73;;
44276;SDS011;29973;43.742;1.236;2023-06-04T13:45:50;2.80;;;1.88;;
44276;SDS011;29973;43.742;1.236;2023-06-04T13:48:16;3.92;;;1.55;;
44276;SDS011;29973;43.742;1.236;2023-06-04T13:50:41;1.73;;;1.20;;
44276;SDS011;29973;43.742;1.236;2023-06-04T13:53:08;2.25;;;1.55;;
44276;SDS011;29973;43.742;1.236;2023-06-04T13:55:34;2.30;;;1.88;;
44276;SDS011;29973;43.742;1.236;2023-06-04T13:57:59;2.85;;;1.70;;
44276;SDS011;29973;43.742;1.236;2023-06-04T14:00:25;4.85;;;1.42;;
44276;SDS011;29973;43.742;1.236;2023-06-04T14:02:51;3.75;;;1.90;;
44276;SDS011;29973;43.742;1.236;2023-06-04T14:05:19;1.98;;;1.60;;
44276;SDS011;29973;43.742;1.236;2023-06-04T14:07:46;3.08;;;1.90;;
44276;SDS011;29973;43.742;1.236;2023-06-04T14:10:11;2.38;;;1.60;;
44276;SDS011;29973;43.742;1.236;2023-06-04T14:12:38;3.33;;;1.80;;
44276;SDS011;29973;43.742;1.236;2023-06-04T14:15:05;2.40;;;1.75;;
44276;SDS011;29973;43.742;1.236;2023-06-04T14:17:33;4.68;;;2.00;;
44276;SDS011;29973;43.742;1.236;2023-06-04T14:19:59;2.08;;;1.70;;
44276;SDS011;29973;43.742;1.236;2023-06-04T14:22:26;3.67;;;2.00;;
44276;SDS011;29973;43.742;1.236;2023-06-04T14:24:51;2.42;;;1.73;;
44276;SDS011;29973;43.742;1.236;2023-06-04T14:27:17;4.60;;;2.00;;
44276;SDS011;29973;43.742;1.236;2023-06-04T14:29:43;3.70;;;1.85;;
44276;SDS011;29973;43.742;1.236;2023-06-04T14:32:08;2.88;;;1.67;;
44276;SDS011;29973;43.742;1.236;2023-06-04T14:34:34;3.88;;;1.75;;
44276;SDS011;29973;43.742;1.236;2023-06-04T14:37:00;3.72;;;2.20;;
44276;SDS011;29973;43.742;1.236;2023-06-04T14:39:26;4.00;;;2.30;;
44276;SDS011;29973;43.742;1.236;2023-06-04T14:41:52;3.90;;;2.10;;
44276;SDS011;29973;43.742;1.236;2023-06-04T14:44:18;2.42;;;2.10;;
44276;SDS011;29973;43.742;1.236;2023-06-04T14:46:45;2.63;;;1.95;;
44276;SDS011;29973;43.742;1.236;2023-06-04T14:49:11;2.95;;;2.08;;
44276;SDS011;29973;43.742;1.236;2023-06-04T14:51:36;2.92;;;2.00;;